Portada
METAR-TAF:

METAR-TAF

Aeropuertos :

Aeropuerto de Sabadell

Sabadell, España

latitud: 41-31N, longitud: 002-06E, altitud: 250 m

Observación

El informe se hizo hace 39 minutos, a las 08:30 UTC
Viento 4 kt con dirección variable
Temperatura 28°C
Humedad 62%
Presión 1016 hPa
Visibilidad 10 km o más
Cielo nuboso a una altura de 3400 ft

METAR: LELL 140830Z VRB04KT 9999 BKN034 28/20 Q1016

Hora: 11:09 (09:09 UTC)

Pronóstico

El informe se hizo hace 1 hora y 9 minutos, a las 08:00 UTC
Pronóstico válido del 14 a las 09 UTC al 15 a las 09 UTC
Viento 3 kt con dirección variable
Visibilidad 10 km o más
Escasas nubes a una altura de 4000 ft
Evolucionando progresivamente
del 14 a las 10 UTC al 14 a las 12 UTC
Viento 10 kt del sur
Evolucionando progresivamente
del 14 a las 17 UTC al 14 a las 20 UTC
Viento 3 kt con dirección variable

TAF: LELL 140800Z 1409/1509 VRB03KT 9999 FEW040 TX31/1415Z TN20/1506Z BECMG 1410/1412 18010KT BECMG 1417/1420 VRB03KT

Observaciones y pronósticos meteorológicos de más de 4000 aeropuertos (mensajes METAR y TAF).

Los puntos amarillos y rojos representan las estaciones disponibles.

Ponga el ratón en el punto deseado para ver el nombre de la estación.

Haga clic para ver las observaciones y los pronósticos meteorológicos.

Para cambiar el mapa : haga clic en los botones verdes con una cruz de color negro para hacer un zoom, en el botón verde con un guión para alejar o en las flechas verdes para mapas adyacentes.


METAR-TAF: